Darstellungsparameter: Aktuell verwendete Einstellungen:
Skalierung der Graphiken ... ?
xyx+y,   Skalierungsfaktor:      Skalierung: Modus: x, Faktor: 1
Darstellungszeitraum ... ?
Vom - - bis: - -   Zeitraum: 30.09.2006 - 30.09.2006
Min/Max/Avg-Anzeige ... ?
Zeige MMA aktuell
Zeige MMA Monat
Zeige MMA alles
Zeige --A aktuell
Zeige --A Monat
Zeige --A alles
Keine MMA-Anzeige
MMA:
Average (ber die Originaldaten)
MMA-Basis: 30.09.2006 - 30.09.2006
Quicknavigation für Darstellung... ?
Tage:      1T, 2T, 3T, 5T -1T -2T -3T -5T +1T +2T +3T +5T
Wochen: 1W, 2W, 3W -1W -2W -3W +1W +2W +3W
Monate: 1M, 3M, 6M -1M -3M -6M +1M +3M +6M
Jahre:    1J, 3J, 5J, 10J -1J -3J -5J -10J +1J +3J +5J +10J
Nutze für die Darstellung ... ?
Originaldaten oder Mittelwerte auf ...
Stundenbasis Tagesbasis Wochenbasis
Monatsbasis Jahresbasis      Datenbasis: Original-Daten
Darstellen als:
Statistik (Auto) Statistik J:M      Darstellung:
Zur Graphik,    zurück zur Übersicht aller Sensoren.
 
Tabellarische Datenbersicht: ?
 
Sensor: Nr:Datum:Temp:Abs-Feuchte:Windchill:Wind:
Aussen-T/F 1 30-09-2006 00:07:03 16.2 C 10.76 g/m*3 16.2 C 0 km/h
2 30-09-2006 00:17:03 16 C 10.76 g/m*3 16 C 0 km/h
3 30-09-2006 00:27:03 15.7 C 10.7 g/m*3 15.7 C 0 km/h
4 30-09-2006 00:37:03 15.5 C 10.71 g/m*3 15.5 C 0 km/h
5 30-09-2006 00:47:02 15.4 C 10.77 g/m*3 15.4 C 0 km/h
6 30-09-2006 00:57:02 15.2 C 10.64 g/m*3 15.2 C 0 km/h
7 30-09-2006 01:07:02 14.9 C 10.58 g/m*3 14.9 C 0 km/h
8 30-09-2006 01:17:02 15.1 C 10.84 g/m*3 15.1 C 0 km/h
9 30-09-2006 01:27:02 14.9 C 10.83 g/m*3 14.9 C 0 km/h
10 30-09-2006 01:37:02 14.8 C 10.77 g/m*3 14.8 C 0 km/h
11 30-09-2006 01:47:02 14.6 C 10.64 g/m*3 14.6 C 0 km/h
12 30-09-2006 01:57:02 14.6 C 10.64 g/m*3 14.6 C 0 km/h
13 30-09-2006 02:07:02 14.6 C 10.76 g/m*3 14.6 C 0 km/h
14 30-09-2006 02:17:02 14.5 C 10.82 g/m*3 14.5 C 0 km/h
15 30-09-2006 02:27:02 14.5 C 10.82 g/m*3 14.5 C 0 km/h
16 30-09-2006 02:37:02 14.4 C 10.75 g/m*3 14.4 C 0 km/h
17 30-09-2006 02:48:04 14.2 C 10.5 g/m*3 14.2 C 0 km/h
18 30-09-2006 02:58:04 14.1 C 10.44 g/m*3 14.1 C 0 km/h
19 30-09-2006 03:08:04 13.9 C 10.43 g/m*3 13.9 C 0 km/h
20 30-09-2006 03:18:04 13.9 C 10.55 g/m*3 13.9 C 0 km/h
21 30-09-2006 03:28:04 13.9 C 10.55 g/m*3 13.9 C 0 km/h
22 30-09-2006 03:38:02 13.8 C 10.48 g/m*3 13.8 C 0 km/h
23 30-09-2006 03:48:02 13.6 C 10.36 g/m*3 13.6 C 0 km/h
24 30-09-2006 03:58:02 13.6 C 10.36 g/m*3 13.6 C 0 km/h
25 30-09-2006 04:08:02 13.6 C 10.47 g/m*3 13.6 C 0 km/h
Sensor: Nr:Datum:Temp:Abs-Feuchte:Windchill:Wind:
Aussen-T/F 26 30-09-2006 04:18:02 13.6 C 10.47 g/m*3 13.6 C 0 km/h
27 30-09-2006 04:28:02 13.8 C 10.6 g/m*3 13.8 C 0 km/h
28 30-09-2006 04:38:02 13.8 C 10.72 g/m*3 13.8 C 0 km/h
29 30-09-2006 04:48:01 13.8 C 10.6 g/m*3 13.8 C 0 km/h
30 30-09-2006 04:58:01 13.9 C 10.79 g/m*3 13.9 C 0 km/h
31 30-09-2006 05:08:02 14 C 10.74 g/m*3 14 C 0 km/h
32 30-09-2006 05:18:01 14 C 10.61 g/m*3 14 C 0 km/h
33 30-09-2006 05:28:01 14.1 C 10.68 g/m*3 14.1 C 0 km/h
34 30-09-2006 05:38:01 14.1 C 10.68 g/m*3 14.1 C 0 km/h
35 30-09-2006 05:48:02 14.1 C 10.68 g/m*3 14.1 C 0 km/h
36 30-09-2006 05:58:03 14.1 C 10.68 g/m*3 14.1 C 0 km/h
37 30-09-2006 06:08:02 14.1 C 10.68 g/m*3 14.1 C 0 km/h
38 30-09-2006 06:18:02 14.1 C 10.56 g/m*3 14.1 C 0 km/h
39 30-09-2006 06:28:02 14.1 C 10.56 g/m*3 14.1 C 0 km/h
40 30-09-2006 06:38:02 14.1 C 10.68 g/m*3 14.1 C 0 km/h
41 30-09-2006 06:48:02 14.1 C 10.68 g/m*3 14.1 C 0 km/h
42 30-09-2006 06:58:02 14.1 C 10.68 g/m*3 14.1 C 0 km/h
43 30-09-2006 07:08:02 14 C 10.74 g/m*3 14 C 0 km/h
44 30-09-2006 07:18:02 14 C 10.74 g/m*3 14 C 0 km/h
45 30-09-2006 07:28:02 14 C 10.74 g/m*3 14 C 0 km/h
46 30-09-2006 07:38:02 13.8 C 10.72 g/m*3 13.8 C 0 km/h
47 30-09-2006 07:48:01 13.8 C 10.72 g/m*3 13.8 C 0 km/h
48 30-09-2006 07:58:02 13.8 C 10.72 g/m*3 13.8 C 0 km/h
49 30-09-2006 08:08:01 13.9 C 10.79 g/m*3 13.9 C 0 km/h
50 30-09-2006 08:18:01 14 C 10.86 g/m*3 14 C 0 km/h
Sensor: Nr:Datum:Temp:Abs-Feuchte:Windchill:Wind:
Aussen-T/F 51 30-09-2006 08:28:01 14 C 10.86 g/m*3 14 C 0 km/h
52 30-09-2006 08:38:01 14 C 10.86 g/m*3 14 C 0 km/h
53 30-09-2006 08:48:02 14.1 C 10.92 g/m*3 14.1 C 0 km/h
54 30-09-2006 08:58:02 14.1 C 10.92 g/m*3 14.1 C 0 km/h
55 30-09-2006 09:08:01 14.2 C 11.11 g/m*3 14.2 C 0 km/h
56 30-09-2006 09:18:01 14.8 C 11.65 g/m*3 14.8 C 0 km/h
57 30-09-2006 09:28:01 15.4 C 11.82 g/m*3 15.4 C 0 km/h
58 30-09-2006 09:38:01 15.7 C 11.91 g/m*3 15.7 C 0 km/h
59 30-09-2006 09:48:02 15.7 C 11.64 g/m*3 15.7 C 0 km/h
60 30-09-2006 09:58:02 15.9 C 11.65 g/m*3 15.9 C 0 km/h
61 30-09-2006 10:08:02 16.4 C 11.58 g/m*3 16.4 C 0 km/h
62 30-09-2006 10:18:01 16.7 C 11.65 g/m*3 16.7 C 0 km/h
63 30-09-2006 10:28:01 17.2 C 11.57 g/m*3 17.2 C 0 km/h
64 30-09-2006 10:38:01 17.5 C 11.48 g/m*3 17.5 C 0 km/h
65 30-09-2006 10:48:02 17.9 C 11.3 g/m*3 17.9 C 0 km/h
66 30-09-2006 10:58:02 18.2 C 10.88 g/m*3 18.2 C 0 km/h
67 30-09-2006 11:08:02 18.5 C 10.76 g/m*3 18.5 C 0 km/h
68 30-09-2006 11:18:01 18.6 C 10.35 g/m*3 18.6 C 0 km/h
69 30-09-2006 11:28:01 18.8 C 9.99 g/m*3 18.8 C 0 km/h
70 30-09-2006 11:38:01 18.9 C 9.4 g/m*3 18.9 C 0 km/h
71 30-09-2006 11:48:02 19.1 C 8.85 g/m*3 19.1 C 0 km/h
72 30-09-2006 11:58:02 19.3 C 8.63 g/m*3 19.3 C 0 km/h
73 30-09-2006 12:08:02 19.5 C 8.22 g/m*3 19.5 C 0 km/h
74 30-09-2006 12:18:01 19.8 C 7.34 g/m*3 19.8 C 0 km/h
75 30-09-2006 12:28:01 20 C 7.6 g/m*3 20 C 0 km/h
Sensor: Nr:Datum:Temp:Abs-Feuchte:Windchill:Wind:
Aussen-T/F 76 30-09-2006 12:38:01 20.4 C 7.78 g/m*3 20.4 C 0 km/h
77 30-09-2006 12:48:02 20.5 C 8.01 g/m*3 20.5 C 0 km/h
78 30-09-2006 12:58:02 20.9 C 8.2 g/m*3 20.9 C 0 km/h
79 30-09-2006 13:08:02 21.2 C 8.34 g/m*3 21.2 C 0 km/h
80 30-09-2006 13:18:01 21.5 C 8.3 g/m*3 21.5 C 0 km/h
81 30-09-2006 13:28:01 21.8 C 8.44 g/m*3 21.8 C 0 km/h
82 30-09-2006 13:38:01 22.1 C 8 g/m*3 22.1 C 0 km/h
83 30-09-2006 13:48:02 22.2 C 8.05 g/m*3 22.2 C 0 km/h
84 30-09-2006 13:58:02 22.6 C 8.24 g/m*3 22.6 C 0 km/h
85 30-09-2006 14:08:02 22.5 C 7.99 g/m*3 22.5 C 0 km/h
86 30-09-2006 14:18:01 22.5 C 7.99 g/m*3 22.5 C 0 km/h
87 30-09-2006 14:28:01 23.1 C 7.86 g/m*3 23.1 C 0 km/h
88 30-09-2006 14:38:01 23.6 C 8.08 g/m*3 23.6 C 0 km/h
89 30-09-2006 14:48:02 23.6 C 8.08 g/m*3 23.6 C 0 km/h
90 30-09-2006 14:58:02 24.1 C 8.1 g/m*3 24.1 C 0 km/h
91 30-09-2006 15:08:02 23.9 C 7.79 g/m*3 23.9 C 0 km/h
92 30-09-2006 15:18:02 23.6 C 7.66 g/m*3 23.6 C 0 km/h
93 30-09-2006 15:28:02 23.6 C 7.66 g/m*3 23.6 C 0 km/h
94 30-09-2006 15:38:02 23.2 C 7.48 g/m*3 23.2 C 0 km/h
95 30-09-2006 15:48:02 23.1 C 7.86 g/m*3 23.1 C 0 km/h
96 30-09-2006 15:58:02 23.3 C 7.74 g/m*3 23.3 C 0 km/h
97 30-09-2006 16:08:02 23.3 C 7.95 g/m*3 23.3 C 0 km/h
98 30-09-2006 16:18:02 23.5 C 8.46 g/m*3 23.5 C 0 km/h
99 30-09-2006 16:28:02 23.2 C 8.11 g/m*3 23.2 C 0 km/h
100 30-09-2006 16:38:02 22.8 C 8.74 g/m*3 22.8 C 0 km/h
Sensor: Nr:Datum:Temp:Abs-Feuchte:Windchill:Wind:
Aussen-T/F 101 30-09-2006 16:48:02 22.5 C 8.79 g/m*3 22.5 C 0 km/h
102 30-09-2006 16:58:02 22.6 C 8.64 g/m*3 22.6 C 0 km/h
103 30-09-2006 17:08:02 22.6 C 8.44 g/m*3 22.6 C 0 km/h
104 30-09-2006 17:18:01 22.5 C 9.39 g/m*3 22.5 C 0 km/h
105 30-09-2006 17:28:01 21.8 C 9.21 g/m*3 21.8 C 0 km/h
106 30-09-2006 17:38:02 21.4 C 9.37 g/m*3 21.4 C 0 km/h
107 30-09-2006 17:48:02 20.9 C 9.29 g/m*3 20.9 C 0 km/h
108 30-09-2006 17:58:02 20.6 C 9.13 g/m*3 20.6 C 0 km/h
109 30-09-2006 18:08:02 20.5 C 9.25 g/m*3 20.5 C 0 km/h
110 30-09-2006 18:18:03 20.3 C 9.67 g/m*3 20.3 C 0 km/h
111 30-09-2006 18:28:03 19.7 C 9.68 g/m*3 19.7 C 0 km/h
112 30-09-2006 18:38:03 18.3 C 10.79 g/m*3 18.3 C 0 km/h
113 30-09-2006 18:48:02 17.3 C 11.49 g/m*3 17.3 C 0 km/h
114 30-09-2006 18:58:02 16.8 C 11.87 g/m*3 16.8 C 0 km/h
115 30-09-2006 19:08:02 16.4 C 12 g/m*3 16.4 C 0 km/h
116 30-09-2006 19:18:02 16.3 C 12.07 g/m*3 16.3 C 0 km/h
117 30-09-2006 19:28:02 16.1 C 12.06 g/m*3 16.1 C 0 km/h
118 30-09-2006 19:38:02 16.3 C 12.21 g/m*3 16.3 C 0 km/h
119 30-09-2006 19:48:02 16.3 C 12.21 g/m*3 16.3 C 0 km/h
120 30-09-2006 19:58:02 16.4 C 12.14 g/m*3 16.4 C 0 km/h
121 30-09-2006 20:08:02 16.3 C 12.07 g/m*3 16.3 C 0 km/h
122 30-09-2006 20:18:02 16.2 C 12 g/m*3 16.2 C 0 km/h
123 30-09-2006 20:28:02 15.8 C 11.71 g/m*3 15.8 C 0 km/h
124 30-09-2006 20:38:02 15.6 C 11.57 g/m*3 15.6 C 0 km/h
125 30-09-2006 20:48:02 15.5 C 11.5 g/m*3 15.5 C 0 km/h
Sensor: Nr:Datum:Temp:Abs-Feuchte:Windchill:Wind:
Aussen-T/F 126 30-09-2006 20:58:02 15.5 C 11.5 g/m*3 15.5 C 0 km/h
127 30-09-2006 21:08:02 15.5 C 11.5 g/m*3 15.5 C 0 km/h
128 30-09-2006 21:18:01 15.4 C 11.3 g/m*3 15.4 C 0 km/h
129 30-09-2006 21:28:01 15.5 C 11.1 g/m*3 15.5 C 0 km/h
130 30-09-2006 21:38:02 15.6 C 11.17 g/m*3 15.6 C 0 km/h
131 30-09-2006 21:48:02 15.6 C 11.17 g/m*3 15.6 C 0 km/h
132 30-09-2006 21:58:02 15.6 C 11.17 g/m*3 15.6 C 0 km/h
133 30-09-2006 22:08:02 15.5 C 11.24 g/m*3 15.5 C 0 km/h
134 30-09-2006 22:18:02 15.4 C 11.17 g/m*3 15.4 C 0 km/h
135 30-09-2006 22:28:02 15.3 C 11.23 g/m*3 15.3 C 0 km/h
136 30-09-2006 22:38:02 15.4 C 11.3 g/m*3 15.4 C 0 km/h
137 30-09-2006 22:48:02 15.5 C 11.37 g/m*3 15.5 C 0 km/h
138 30-09-2006 22:58:02 15.3 C 11.23 g/m*3 15.3 C 0 km/h
139 30-09-2006 23:08:02 15.2 C 11.16 g/m*3 15.2 C 0 km/h
140 30-09-2006 23:18:02 15 C 11.16 g/m*3 15 C 0 km/h
141 30-09-2006 23:28:02 15.2 C 11.55 g/m*3 15.2 C 0 km/h
142 30-09-2006 23:38:02 15.2 C 11.55 g/m*3 15.2 C 0 km/h
143 30-09-2006 23:48:02 15 C 11.54 g/m*3 15 C 0 km/h
144 30-09-2006 23:58:02 15 C 11.54 g/m*3 15 C 0 km/h

Legende:
   Min
   Max


Maximal/Minimal-Werte vom 30.09.2006 - 30.09.2006

Sensor Min Max Avg
Temp
(Aussen-T/F)
13.6 °C
30-09-2006  03:48:02
24.1 °C
30-09-2006  14:58:02
17.1 °C
Abs-Feuchte
(Aussen-T/F)
7.34 g/m*3
30-09-2006  12:18:01
12.21 g/m*3
30-09-2006  19:38:02
10.2 g/m*3
Windchill
(Aussen-T/F)
13.6 C
30-09-2006  03:48:02
24.1 C
30-09-2006  14:58:02
16.98 C

Die Daten stammen von einer Davis Vantage Pro 2 Wetter-Station und werden unter Linux mit der Software wview2wettercgi und aufbereitet. Alle Angaben erfolgen ohne Gewähr für ihre Vollständigkeit oder Richtigkeit.
Kontakt: Rainer Krienke krienke@uni-koblenz.de . Meine Webseiten an der Uni Koblenz oder privat.
Version: $Revision: 0.78 $